sensor_id;sensor_type;location;lat;lon;timestamp;temperature;humidity
1468;DHT22;727;48.892;9.544;2023-08-07T00:00:37;12.50;99.90
1468;DHT22;727;48.892;9.544;2023-08-07T00:03:03;12.50;99.90
1468;DHT22;727;48.892;9.544;2023-08-07T00:05:30;12.40;99.90
1468;DHT22;727;48.892;9.544;2023-08-07T00:07:57;12.50;99.90
1468;DHT22;727;48.892;9.544;2023-08-07T00:10:24;12.50;99.90
1468;DHT22;727;48.892;9.544;2023-08-07T00:12:50;12.50;99.90
1468;DHT22;727;48.892;9.544;2023-08-07T00:15:17;12.40;99.90
1468;DHT22;727;48.892;9.544;2023-08-07T00:17:45;12.50;99.90
1468;DHT22;727;48.892;9.544;2023-08-07T00:20:12;12.40;99.90
1468;DHT22;727;48.892;9.544;2023-08-07T00:22:40;12.40;99.90
1468;DHT22;727;48.892;9.544;2023-08-07T00:25:07;12.40;99.90
1468;DHT22;727;48.892;9.544;2023-08-07T00:27:34;12.40;99.90
1468;DHT22;727;48.892;9.544;2023-08-07T00:30:03;12.40;99.90
1468;DHT22;727;48.892;9.544;2023-08-07T00:32:30;12.40;99.90
1468;DHT22;727;48.892;9.544;2023-08-07T00:34:58;12.50;99.90
1468;DHT22;727;48.892;9.544;2023-08-07T00:37:25;12.40;99.90
1468;DHT22;727;48.892;9.544;2023-08-07T00:39:52;12.40;99.90
1468;DHT22;727;48.892;9.544;2023-08-07T00:42:19;12.40;99.90
1468;DHT22;727;48.892;9.544;2023-08-07T00:44:45;12.50;99.90
1468;DHT22;727;48.892;9.544;2023-08-07T00:47:12;12.50;99.90
1468;DHT22;727;48.892;9.544;2023-08-07T00:49:39;12.50;99.90
1468;DHT22;727;48.892;9.544;2023-08-07T00:52:08;12.50;99.90
1468;DHT22;727;48.892;9.544;2023-08-07T00:54:34;12.40;99.90
1468;DHT22;727;48.892;9.544;2023-08-07T00:57:09;12.50;99.90
1468;DHT22;727;48.892;9.544;2023-08-07T00:59:37;12.40;99.90
1468;DHT22;727;48.892;9.544;2023-08-07T01:02:05;12.40;99.90
1468;DHT22;727;48.892;9.544;2023-08-07T01:04:32;12.40;99.90
1468;DHT22;727;48.892;9.544;2023-08-07T01:06:59;12.40;99.90
1468;DHT22;727;48.892;9.544;2023-08-07T01:09:27;12.40;99.90
1468;DHT22;727;48.892;9.544;2023-08-07T01:12:02;12.50;99.90
1468;DHT22;727;48.892;9.544;2023-08-07T01:14:44;12.50;99.90
1468;DHT22;727;48.892;9.544;2023-08-07T01:17:16;12.50;99.90
1468;DHT22;727;48.892;9.544;2023-08-07T01:19:45;12.50;99.90
1468;DHT22;727;48.892;9.544;2023-08-07T01:22:14;12.50;99.90
1468;DHT22;727;48.892;9.544;2023-08-07T01:24:43;12.50;99.90
1468;DHT22;727;48.892;9.544;2023-08-07T01:27:23;12.50;99.90
1468;DHT22;727;48.892;9.544;2023-08-07T01:29:54;12.50;99.90
1468;DHT22;727;48.892;9.544;2023-08-07T01:32:26;12.40;99.90
1468;DHT22;727;48.892;9.544;2023-08-07T01:34:54;12.50;99.90
1468;DHT22;727;48.892;9.544;2023-08-07T01:37:23;12.40;99.90
1468;DHT22;727;48.892;9.544;2023-08-07T01:39:51;12.40;99.90
1468;DHT22;727;48.892;9.544;2023-08-07T01:42:18;12.40;99.90
1468;DHT22;727;48.892;9.544;2023-08-07T01:44:45;12.50;99.90
1468;DHT22;727;48.892;9.544;2023-08-07T01:47:12;12.40;99.90
1468;DHT22;727;48.892;9.544;2023-08-07T01:49:38;12.40;99.90
1468;DHT22;727;48.892;9.544;2023-08-07T01:52:07;12.40;99.90
1468;DHT22;727;48.892;9.544;2023-08-07T01:54:35;12.40;99.90
1468;DHT22;727;48.892;9.544;2023-08-07T01:57:03;12.50;99.90
1468;DHT22;727;48.892;9.544;2023-08-07T01:59:29;12.50;99.90
1468;DHT22;727;48.892;9.544;2023-08-07T02:01:56;12.40;99.90
1468;DHT22;727;48.892;9.544;2023-08-07T02:04:23;12.50;99.90
1468;DHT22;727;48.892;9.544;2023-08-07T02:06:50;12.50;99.90
1468;DHT22;727;48.892;9.544;2023-08-07T02:09:16;12.50;99.90
1468;DHT22;727;48.892;9.544;2023-08-07T02:11:44;12.50;99.90
1468;DHT22;727;48.892;9.544;2023-08-07T02:14:11;12.50;99.90
1468;DHT22;727;48.892;9.544;2023-08-07T02:16:38;12.50;99.90
1468;DHT22;727;48.892;9.544;2023-08-07T02:19:05;12.50;99.90
1468;DHT22;727;48.892;9.544;2023-08-07T02:21:32;12.50;99.90
1468;DHT22;727;48.892;9.544;2023-08-07T02:23:59;12.40;99.90
1468;DHT22;727;48.892;9.544;2023-08-07T02:26:26;12.50;99.90
1468;DHT22;727;48.892;9.544;2023-08-07T02:28:54;12.50;99.90
1468;DHT22;727;48.892;9.544;2023-08-07T02:31:21;12.40;99.90
1468;DHT22;727;48.892;9.544;2023-08-07T02:33:48;12.50;99.90
1468;DHT22;727;48.892;9.544;2023-08-07T02:36:14;12.50;99.90
1468;DHT22;727;48.892;9.544;2023-08-07T02:38:41;12.40;99.90
1468;DHT22;727;48.892;9.544;2023-08-07T02:41:08;12.50;99.90
1468;DHT22;727;48.892;9.544;2023-08-07T02:43:35;12.40;99.90
1468;DHT22;727;48.892;9.544;2023-08-07T02:46:03;12.50;99.90
1468;DHT22;727;48.892;9.544;2023-08-07T02:48:30;12.40;99.90
1468;DHT22;727;48.892;9.544;2023-08-07T02:50:56;12.40;99.90
1468;DHT22;727;48.892;9.544;2023-08-07T02:53:23;12.50;99.90
1468;DHT22;727;48.892;9.544;2023-08-07T02:55:50;12.50;99.90
1468;DHT22;727;48.892;9.544;2023-08-07T02:58:17;12.40;99.90
1468;DHT22;727;48.892;9.544;2023-08-07T03:00:43;12.40;99.90
1468;DHT22;727;48.892;9.544;2023-08-07T03:03:12;12.40;99.90
1468;DHT22;727;48.892;9.544;2023-08-07T03:05:38;12.40;99.90
1468;DHT22;727;48.892;9.544;2023-08-07T03:08:05;12.40;99.90
1468;DHT22;727;48.892;9.544;2023-08-07T03:10:32;12.40;99.90
1468;DHT22;727;48.892;9.544;2023-08-07T03:12:59;12.40;99.90
1468;DHT22;727;48.892;9.544;2023-08-07T03:15:25;12.40;99.90
1468;DHT22;727;48.892;9.544;2023-08-07T03:17:52;12.40;99.90
1468;DHT22;727;48.892;9.544;2023-08-07T03:20:20;12.40;99.90
1468;DHT22;727;48.892;9.544;2023-08-07T03:22:47;12.40;99.90
1468;DHT22;727;48.892;9.544;2023-08-07T03:25:14;12.30;99.90
1468;DHT22;727;48.892;9.544;2023-08-07T03:27:40;12.30;99.90
1468;DHT22;727;48.892;9.544;2023-08-07T03:30:08;12.40;99.90
1468;DHT22;727;48.892;9.544;2023-08-07T03:32:35;12.30;99.90
1468;DHT22;727;48.892;9.544;2023-08-07T03:35:01;12.30;99.90
1468;DHT22;727;48.892;9.544;2023-08-07T03:37:30;12.40;99.90
1468;DHT22;727;48.892;9.544;2023-08-07T03:39:56;12.40;99.90
1468;DHT22;727;48.892;9.544;2023-08-07T03:42:23;12.40;99.90
1468;DHT22;727;48.892;9.544;2023-08-07T03:44:50;12.40;99.90
1468;DHT22;727;48.892;9.544;2023-08-07T03:47:17;12.40;99.90
1468;DHT22;727;48.892;9.544;2023-08-07T03:49:43;12.40;99.90
1468;DHT22;727;48.892;9.544;2023-08-07T03:52:10;12.40;99.90
1468;DHT22;727;48.892;9.544;2023-08-07T03:54:38;12.40;99.90
1468;DHT22;727;48.892;9.544;2023-08-07T03:57:05;12.40;99.90
1468;DHT22;727;48.892;9.544;2023-08-07T03:59:33;12.40;99.90
1468;DHT22;727;48.892;9.544;2023-08-07T04:02:00;12.40;99.90
1468;DHT22;727;48.892;9.544;2023-08-07T04:04:27;12.40;99.90
1468;DHT22;727;48.892;9.544;2023-08-07T04:06:54;12.40;99.90
1468;DHT22;727;48.892;9.544;2023-08-07T04:09:20;12.40;99.90
1468;DHT22;727;48.892;9.544;2023-08-07T04:11:49;12.40;99.90
1468;DHT22;727;48.892;9.544;2023-08-07T04:14:15;12.40;99.90
1468;DHT22;727;48.892;9.544;2023-08-07T04:16:42;12.40;99.90
1468;DHT22;727;48.892;9.544;2023-08-07T04:19:09;12.40;99.90
1468;DHT22;727;48.892;9.544;2023-08-07T04:21:36;12.40;99.90
1468;DHT22;727;48.892;9.544;2023-08-07T04:24:03;12.40;99.90
1468;DHT22;727;48.892;9.544;2023-08-07T04:26:36;12.40;99.90
1468;DHT22;727;48.892;9.544;2023-08-07T04:29:05;12.40;99.90
1468;DHT22;727;48.892;9.544;2023-08-07T04:31:32;12.40;99.90
1468;DHT22;727;48.892;9.544;2023-08-07T04:33:59;12.40;99.90
1468;DHT22;727;48.892;9.544;2023-08-07T04:36:26;12.40;99.90
1468;DHT22;727;48.892;9.544;2023-08-07T04:38:53;12.40;99.90
1468;DHT22;727;48.892;9.544;2023-08-07T04:41:21;12.40;99.90
1468;DHT22;727;48.892;9.544;2023-08-07T04:43:47;12.40;99.90
1468;DHT22;727;48.892;9.544;2023-08-07T04:46:16;12.40;99.90
1468;DHT22;727;48.892;9.544;2023-08-07T04:48:42;12.40;99.90
1468;DHT22;727;48.892;9.544;2023-08-07T04:51:09;12.40;99.90
1468;DHT22;727;48.892;9.544;2023-08-07T04:53:36;12.40;99.90
1468;DHT22;727;48.892;9.544;2023-08-07T04:56:03;12.40;99.90
1468;DHT22;727;48.892;9.544;2023-08-07T04:58:30;12.40;99.90
1468;DHT22;727;48.892;9.544;2023-08-07T05:00:57;12.40;99.90
1468;DHT22;727;48.892;9.544;2023-08-07T05:03:26;12.50;99.90
1468;DHT22;727;48.892;9.544;2023-08-07T05:05:58;12.40;99.90
1468;DHT22;727;48.892;9.544;2023-08-07T05:08:25;12.40;99.90
1468;DHT22;727;48.892;9.544;2023-08-07T05:10:52;12.50;99.90
1468;DHT22;727;48.892;9.544;2023-08-07T05:13:19;12.50;99.90
1468;DHT22;727;48.892;9.544;2023-08-07T05:15:47;12.50;99.90
1468;DHT22;727;48.892;9.544;2023-08-07T05:18:14;12.50;99.90
1468;DHT22;727;48.892;9.544;2023-08-07T05:20:43;12.50;99.90
1468;DHT22;727;48.892;9.544;2023-08-07T05:23:10;12.50;99.90
1468;DHT22;727;48.892;9.544;2023-08-07T05:25:37;12.50;99.90
1468;DHT22;727;48.892;9.544;2023-08-07T05:28:04;12.60;99.90
1468;DHT22;727;48.892;9.544;2023-08-07T05:30:31;12.60;99.90
1468;DHT22;727;48.892;9.544;2023-08-07T05:32:58;12.60;99.90
1468;DHT22;727;48.892;9.544;2023-08-07T05:35:25;12.70;99.90
1468;DHT22;727;48.892;9.544;2023-08-07T05:37:53;12.70;99.90
1468;DHT22;727;48.892;9.544;2023-08-07T05:40:20;12.70;99.90
1468;DHT22;727;48.892;9.544;2023-08-07T05:42:46;12.80;99.90
1468;DHT22;727;48.892;9.544;2023-08-07T05:45:13;12.80;99.90
1468;DHT22;727;48.892;9.544;2023-08-07T05:47:40;12.80;99.90
1468;DHT22;727;48.892;9.544;2023-08-07T05:50:07;12.80;99.90
1468;DHT22;727;48.892;9.544;2023-08-07T05:52:34;12.80;99.90
1468;DHT22;727;48.892;9.544;2023-08-07T05:55:03;12.90;99.90
1468;DHT22;727;48.892;9.544;2023-08-07T05:57:30;12.90;99.90
1468;DHT22;727;48.892;9.544;2023-08-07T05:59:56;12.90;99.90
1468;DHT22;727;48.892;9.544;2023-08-07T06:02:23;12.90;99.90
1468;DHT22;727;48.892;9.544;2023-08-07T06:04:50;13.00;99.90
1468;DHT22;727;48.892;9.544;2023-08-07T06:07:18;13.00;99.90
1468;DHT22;727;48.892;9.544;2023-08-07T06:09:45;13.00;99.90
1468;DHT22;727;48.892;9.544;2023-08-07T06:12:13;13.00;99.90
1468;DHT22;727;48.892;9.544;2023-08-07T06:14:40;13.10;99.90
1468;DHT22;727;48.892;9.544;2023-08-07T06:17:06;13.10;99.90
1468;DHT22;727;48.892;9.544;2023-08-07T06:19:33;13.30;99.90
1468;DHT22;727;48.892;9.544;2023-08-07T06:22:00;13.40;99.90
1468;DHT22;727;48.892;9.544;2023-08-07T06:24:27;13.40;99.90
1468;DHT22;727;48.892;9.544;2023-08-07T06:26:53;13.50;99.90
1468;DHT22;727;48.892;9.544;2023-08-07T06:29:22;13.50;99.90
1468;DHT22;727;48.892;9.544;2023-08-07T06:31:48;13.60;99.90
1468;DHT22;727;48.892;9.544;2023-08-07T06:34:15;13.70;99.90
1468;DHT22;727;48.892;9.544;2023-08-07T06:36:43;13.80;99.90
1468;DHT22;727;48.892;9.544;2023-08-07T06:39:09;14.00;99.90
1468;DHT22;727;48.892;9.544;2023-08-07T06:41:37;14.10;99.90
1468;DHT22;727;48.892;9.544;2023-08-07T06:44:04;14.10;99.90
1468;DHT22;727;48.892;9.544;2023-08-07T06:46:32;14.20;99.90
1468;DHT22;727;48.892;9.544;2023-08-07T06:48:59;14.50;99.90
1468;DHT22;727;48.892;9.544;2023-08-07T06:51:26;14.70;99.90
1468;DHT22;727;48.892;9.544;2023-08-07T06:53:53;15.00;99.90
1468;DHT22;727;48.892;9.544;2023-08-07T06:56:19;15.30;99.90
1468;DHT22;727;48.892;9.544;2023-08-07T06:58:47;15.80;99.90
1468;DHT22;727;48.892;9.544;2023-08-07T07:01:14;16.20;99.90
1468;DHT22;727;48.892;9.544;2023-08-07T07:03:42;16.70;99.90
1468;DHT22;727;48.892;9.544;2023-08-07T07:06:11;17.00;99.40
1468;DHT22;727;48.892;9.544;2023-08-07T07:08:37;17.10;98.90
1468;DHT22;727;48.892;9.544;2023-08-07T07:11:04;17.30;98.70
1468;DHT22;727;48.892;9.544;2023-08-07T07:13:31;17.60;97.60
1468;DHT22;727;48.892;9.544;2023-08-07T07:15:57;17.90;97.30
1468;DHT22;727;48.892;9.544;2023-08-07T07:18:25;17.90;96.00
1468;DHT22;727;48.892;9.544;2023-08-07T07:20:58;18.30;95.70
1468;DHT22;727;48.892;9.544;2023-08-07T07:23:26;18.50;94.70
1468;DHT22;727;48.892;9.544;2023-08-07T07:25:53;18.40;95.10
1468;DHT22;727;48.892;9.544;2023-08-07T07:28:20;18.50;94.70
1468;DHT22;727;48.892;9.544;2023-08-07T07:30:48;18.10;94.60
1468;DHT22;727;48.892;9.544;2023-08-07T07:33:15;17.80;94.50
1468;DHT22;727;48.892;9.544;2023-08-07T07:35:42;17.60;94.90
1468;DHT22;727;48.892;9.544;2023-08-07T07:38:10;17.20;95.50
1468;DHT22;727;48.892;9.544;2023-08-07T07:40:37;16.70;95.80
1468;DHT22;727;48.892;9.544;2023-08-07T07:43:04;16.30;96.10
1468;DHT22;727;48.892;9.544;2023-08-07T07:45:31;16.00;96.80
1468;DHT22;727;48.892;9.544;2023-08-07T07:47:59;15.80;97.20
1468;DHT22;727;48.892;9.544;2023-08-07T07:50:25;15.70;97.80
1468;DHT22;727;48.892;9.544;2023-08-07T07:52:52;15.70;98.10
1468;DHT22;727;48.892;9.544;2023-08-07T07:55:20;15.60;98.10
1468;DHT22;727;48.892;9.544;2023-08-07T07:57:47;15.40;98.50
1468;DHT22;727;48.892;9.544;2023-08-07T08:00:15;15.30;98.70
1468;DHT22;727;48.892;9.544;2023-08-07T08:02:41;15.20;98.90
1468;DHT22;727;48.892;9.544;2023-08-07T08:05:09;15.20;99.00
1468;DHT22;727;48.892;9.544;2023-08-07T08:07:39;15.20;99.20
1468;DHT22;727;48.892;9.544;2023-08-07T08:10:06;15.10;98.90
1468;DHT22;727;48.892;9.544;2023-08-07T08:12:35;15.10;98.80
1468;DHT22;727;48.892;9.544;2023-08-07T08:15:03;15.10;99.00
1468;DHT22;727;48.892;9.544;2023-08-07T08:17:30;15.10;99.90
1468;DHT22;727;48.892;9.544;2023-08-07T08:19:57;15.10;99.80
1468;DHT22;727;48.892;9.544;2023-08-07T08:22:24;15.20;99.90
1468;DHT22;727;48.892;9.544;2023-08-07T08:24:51;15.30;99.80
1468;DHT22;727;48.892;9.544;2023-08-07T08:27:18;15.30;99.90
1468;DHT22;727;48.892;9.544;2023-08-07T08:29:46;15.30;99.90
1468;DHT22;727;48.892;9.544;2023-08-07T08:32:13;15.30;99.90
1468;DHT22;727;48.892;9.544;2023-08-07T08:34:40;15.40;99.90
1468;DHT22;727;48.892;9.544;2023-08-07T08:37:07;15.20;99.90
1468;DHT22;727;48.892;9.544;2023-08-07T08:39:36;15.20;99.90
1468;DHT22;727;48.892;9.544;2023-08-07T08:42:03;15.30;99.90
1468;DHT22;727;48.892;9.544;2023-08-07T08:44:31;15.40;99.90
1468;DHT22;727;48.892;9.544;2023-08-07T08:47:03;15.30;99.60
1468;DHT22;727;48.892;9.544;2023-08-07T08:49:35;15.30;99.50
1468;DHT22;727;48.892;9.544;2023-08-07T08:52:02;15.20;98.80
1468;DHT22;727;48.892;9.544;2023-08-07T08:54:30;15.20;99.00
1468;DHT22;727;48.892;9.544;2023-08-07T08:56:57;15.20;99.30
1468;DHT22;727;48.892;9.544;2023-08-07T08:59:25;15.30;99.30
1468;DHT22;727;48.892;9.544;2023-08-07T09:01:52;15.50;99.90
1468;DHT22;727;48.892;9.544;2023-08-07T09:04:20;15.60;98.70
1468;DHT22;727;48.892;9.544;2023-08-07T09:06:47;15.70;98.40
1468;DHT22;727;48.892;9.544;2023-08-07T09:09:14;15.60;97.70
1468;DHT22;727;48.892;9.544;2023-08-07T09:11:43;15.60;98.00
1468;DHT22;727;48.892;9.544;2023-08-07T09:14:15;15.70;97.70
1468;DHT22;727;48.892;9.544;2023-08-07T09:16:43;15.70;97.90
1468;DHT22;727;48.892;9.544;2023-08-07T09:19:11;15.90;98.90
1468;DHT22;727;48.892;9.544;2023-08-07T09:21:39;16.10;98.10
1468;DHT22;727;48.892;9.544;2023-08-07T09:24:06;16.20;96.60
1468;DHT22;727;48.892;9.544;2023-08-07T09:26:33;16.30;97.10
1468;DHT22;727;48.892;9.544;2023-08-07T09:29:01;16.30;96.50
1468;DHT22;727;48.892;9.544;2023-08-07T09:31:28;16.30;95.80
1468;DHT22;727;48.892;9.544;2023-08-07T09:34:01;16.30;95.80
1468;DHT22;727;48.892;9.544;2023-08-07T09:36:30;16.50;96.50
1468;DHT22;727;48.892;9.544;2023-08-07T09:39:00;16.50;95.30
1468;DHT22;727;48.892;9.544;2023-08-07T09:41:28;16.50;95.80
1468;DHT22;727;48.892;9.544;2023-08-07T09:43:55;16.50;95.10
1468;DHT22;727;48.892;9.544;2023-08-07T09:46:22;16.60;96.10
1468;DHT22;727;48.892;9.544;2023-08-07T09:48:49;16.90;95.10
1468;DHT22;727;48.892;9.544;2023-08-07T09:51:16;17.00;94.30
1468;DHT22;727;48.892;9.544;2023-08-07T09:53:43;17.30;94.00
1468;DHT22;727;48.892;9.544;2023-08-07T09:56:11;17.40;93.20
1468;DHT22;727;48.892;9.544;2023-08-07T09:58:46;17.70;92.80
1468;DHT22;727;48.892;9.544;2023-08-07T10:01:15;18.00;92.70
1468;DHT22;727;48.892;9.544;2023-08-07T10:03:43;18.10;92.00
1468;DHT22;727;48.892;9.544;2023-08-07T10:06:10;18.30;91.30
1468;DHT22;727;48.892;9.544;2023-08-07T10:08:38;18.40;91.30
1468;DHT22;727;48.892;9.544;2023-08-07T10:11:07;18.10;90.40
1468;DHT22;727;48.892;9.544;2023-08-07T10:13:35;17.70;90.60
1468;DHT22;727;48.892;9.544;2023-08-07T10:16:03;17.70;91.00
1468;DHT22;727;48.892;9.544;2023-08-07T10:18:30;17.90;91.40
1468;DHT22;727;48.892;9.544;2023-08-07T10:20:57;18.20;90.50
1468;DHT22;727;48.892;9.544;2023-08-07T10:23:26;18.70;88.60
1468;DHT22;727;48.892;9.544;2023-08-07T10:25:53;19.00;88.00
1468;DHT22;727;48.892;9.544;2023-08-07T10:28:20;19.20;88.00
1468;DHT22;727;48.892;9.544;2023-08-07T10:30:50;19.20;85.80
1468;DHT22;727;48.892;9.544;2023-08-07T10:33:18;19.10;85.80
1468;DHT22;727;48.892;9.544;2023-08-07T10:35:46;19.20;85.00
1468;DHT22;727;48.892;9.544;2023-08-07T10:38:14;19.20;82.60
1468;DHT22;727;48.892;9.544;2023-08-07T10:41:06;19.50;84.10
1468;DHT22;727;48.892;9.544;2023-08-07T10:43:36;19.70;81.80
1468;DHT22;727;48.892;9.544;2023-08-07T10:46:06;19.80;83.50
1468;DHT22;727;48.892;9.544;2023-08-07T10:48:39;19.80;82.80
1468;DHT22;727;48.892;9.544;2023-08-07T10:51:06;20.10;80.20
1468;DHT22;727;48.892;9.544;2023-08-07T10:53:35;20.10;80.60
1468;DHT22;727;48.892;9.544;2023-08-07T10:56:02;20.10;80.80
1468;DHT22;727;48.892;9.544;2023-08-07T10:58:30;19.70;80.30
1468;DHT22;727;48.892;9.544;2023-08-07T11:01:21;19.30;81.30
1468;DHT22;727;48.892;9.544;2023-08-07T11:03:50;19.00;83.20
1468;DHT22;727;48.892;9.544;2023-08-07T11:06:17;19.50;82.30
1468;DHT22;727;48.892;9.544;2023-08-07T11:08:44;19.80;81.40
1468;DHT22;727;48.892;9.544;2023-08-07T11:11:10;19.80;80.70
1468;DHT22;727;48.892;9.544;2023-08-07T11:13:37;19.50;80.40
1468;DHT22;727;48.892;9.544;2023-08-07T11:16:05;19.20;82.00
1468;DHT22;727;48.892;9.544;2023-08-07T11:18:33;19.00;84.30
1468;DHT22;727;48.892;9.544;2023-08-07T11:21:01;18.80;82.80
1468;DHT22;727;48.892;9.544;2023-08-07T11:23:28;18.30;84.90
1468;DHT22;727;48.892;9.544;2023-08-07T11:25:55;18.00;87.80
1468;DHT22;727;48.892;9.544;2023-08-07T11:28:22;17.80;90.00
1468;DHT22;727;48.892;9.544;2023-08-07T11:30:51;17.50;89.30
1468;DHT22;727;48.892;9.544;2023-08-07T11:33:18;17.30;90.20
1468;DHT22;727;48.892;9.544;2023-08-07T11:35:47;17.10;90.40
1468;DHT22;727;48.892;9.544;2023-08-07T11:38:28;17.00;90.70
1468;DHT22;727;48.892;9.544;2023-08-07T11:40:57;17.00;90.90
1468;DHT22;727;48.892;9.544;2023-08-07T11:43:23;16.90;91.60
1468;DHT22;727;48.892;9.544;2023-08-07T11:45:50;16.80;91.80
1468;DHT22;727;48.892;9.544;2023-08-07T11:48:17;16.80;92.50
1468;DHT22;727;48.892;9.544;2023-08-07T11:50:44;16.80;93.10
1468;DHT22;727;48.892;9.544;2023-08-07T11:53:12;17.00;93.50
1468;DHT22;727;48.892;9.544;2023-08-07T11:55:46;17.20;92.70
1468;DHT22;727;48.892;9.544;2023-08-07T11:58:13;17.40;92.00
1468;DHT22;727;48.892;9.544;2023-08-07T12:00:43;17.40;92.00
1468;DHT22;727;48.892;9.544;2023-08-07T12:03:23;17.40;91.40
1468;DHT22;727;48.892;9.544;2023-08-07T12:05:51;17.40;92.20
1468;DHT22;727;48.892;9.544;2023-08-07T12:08:20;17.40;91.70
1468;DHT22;727;48.892;9.544;2023-08-07T12:10:49;17.40;91.10
1468;DHT22;727;48.892;9.544;2023-08-07T12:13:19;17.50;91.70
1468;DHT22;727;48.892;9.544;2023-08-07T12:15:46;17.60;90.80
1468;DHT22;727;48.892;9.544;2023-08-07T12:18:12;17.60;90.10
1468;DHT22;727;48.892;9.544;2023-08-07T12:20:41;17.60;89.80
1468;DHT22;727;48.892;9.544;2023-08-07T12:23:13;17.60;90.30
1468;DHT22;727;48.892;9.544;2023-08-07T12:25:41;17.80;90.20
1468;DHT22;727;48.892;9.544;2023-08-07T12:28:08;17.80;90.40
1468;DHT22;727;48.892;9.544;2023-08-07T12:30:35;18.00;90.30
1468;DHT22;727;48.892;9.544;2023-08-07T12:33:02;18.00;90.70
1468;DHT22;727;48.892;9.544;2023-08-07T12:35:29;18.00;90.50
1468;DHT22;727;48.892;9.544;2023-08-07T12:37:56;18.00;90.40
1468;DHT22;727;48.892;9.544;2023-08-07T12:40:23;17.90;90.20
1468;DHT22;727;48.892;9.544;2023-08-07T12:42:52;17.90;90.20
1468;DHT22;727;48.892;9.544;2023-08-07T12:45:19;18.00;90.40
1468;DHT22;727;48.892;9.544;2023-08-07T12:47:46;18.10;90.40
1468;DHT22;727;48.892;9.544;2023-08-07T12:50:12;17.90;89.90
1468;DHT22;727;48.892;9.544;2023-08-07T12:52:39;17.70;90.60
1468;DHT22;727;48.892;9.544;2023-08-07T12:55:07;17.60;91.20
1468;DHT22;727;48.892;9.544;2023-08-07T12:57:35;17.60;92.30
1468;DHT22;727;48.892;9.544;2023-08-07T13:00:03;17.80;91.90
1468;DHT22;727;48.892;9.544;2023-08-07T13:02:30;18.00;92.10
1468;DHT22;727;48.892;9.544;2023-08-07T13:04:57;18.00;91.80
1468;DHT22;727;48.892;9.544;2023-08-07T13:07:23;17.90;91.70
1468;DHT22;727;48.892;9.544;2023-08-07T13:09:51;17.90;93.30
1468;DHT22;727;48.892;9.544;2023-08-07T13:12:17;17.80;93.40
1468;DHT22;727;48.892;9.544;2023-08-07T13:14:44;17.70;93.40
1468;DHT22;727;48.892;9.544;2023-08-07T13:17:12;17.60;93.70
1468;DHT22;727;48.892;9.544;2023-08-07T13:19:39;17.70;94.70
1468;DHT22;727;48.892;9.544;2023-08-07T13:22:07;17.80;94.80
1468;DHT22;727;48.892;9.544;2023-08-07T13:24:34;18.00;94.90
1468;DHT22;727;48.892;9.544;2023-08-07T13:27:00;17.90;93.60
1468;DHT22;727;48.892;9.544;2023-08-07T13:29:29;18.00;95.20
1468;DHT22;727;48.892;9.544;2023-08-07T13:31:55;18.10;95.20
1468;DHT22;727;48.892;9.544;2023-08-07T13:34:23;18.10;95.40
1468;DHT22;727;48.892;9.544;2023-08-07T13:36:50;18.30;96.00
1468;DHT22;727;48.892;9.544;2023-08-07T13:39:17;18.50;95.40
1468;DHT22;727;48.892;9.544;2023-08-07T13:41:43;18.70;95.10
1468;DHT22;727;48.892;9.544;2023-08-07T13:44:10;18.80;94.60
1468;DHT22;727;48.892;9.544;2023-08-07T13:46:37;18.70;94.90
1468;DHT22;727;48.892;9.544;2023-08-07T13:49:04;18.80;95.40
1468;DHT22;727;48.892;9.544;2023-08-07T13:51:32;18.90;94.60
1468;DHT22;727;48.892;9.544;2023-08-07T13:53:58;19.00;95.10
1468;DHT22;727;48.892;9.544;2023-08-07T13:56:25;19.10;94.70
1468;DHT22;727;48.892;9.544;2023-08-07T13:58:54;19.30;94.40
1468;DHT22;727;48.892;9.544;2023-08-07T14:01:21;19.40;94.70
1468;DHT22;727;48.892;9.544;2023-08-07T14:03:48;19.60;94.00
1468;DHT22;727;48.892;9.544;2023-08-07T14:06:14;19.80;93.30
1468;DHT22;727;48.892;9.544;2023-08-07T14:08:43;20.00;92.70
1468;DHT22;727;48.892;9.544;2023-08-07T14:11:09;20.20;93.10
1468;DHT22;727;48.892;9.544;2023-08-07T14:13:37;20.30;92.40
1468;DHT22;727;48.892;9.544;2023-08-07T14:16:04;20.60;92.20
1468;DHT22;727;48.892;9.544;2023-08-07T14:18:30;20.90;91.10
1468;DHT22;727;48.892;9.544;2023-08-07T14:20:57;20.90;90.60
1468;DHT22;727;48.892;9.544;2023-08-07T14:23:24;20.90;91.30
1468;DHT22;727;48.892;9.544;2023-08-07T14:25:52;20.90;90.80
1468;DHT22;727;48.892;9.544;2023-08-07T14:28:19;20.70;90.80
1468;DHT22;727;48.892;9.544;2023-08-07T14:30:47;20.60;90.60
1468;DHT22;727;48.892;9.544;2023-08-07T14:33:14;20.80;91.50
1468;DHT22;727;48.892;9.544;2023-08-07T14:35:41;20.70;90.60
1468;DHT22;727;48.892;9.544;2023-08-07T14:38:08;20.50;91.10
1468;DHT22;727;48.892;9.544;2023-08-07T14:40:34;20.40;91.40
1468;DHT22;727;48.892;9.544;2023-08-07T14:43:04;20.40;91.40
1468;DHT22;727;48.892;9.544;2023-08-07T14:45:31;20.20;90.60
1468;DHT22;727;48.892;9.544;2023-08-07T14:47:58;20.00;91.20
1468;DHT22;727;48.892;9.544;2023-08-07T14:50:25;19.70;91.40
1468;DHT22;727;48.892;9.544;2023-08-07T14:52:52;19.50;93.20
1468;DHT22;727;48.892;9.544;2023-08-07T14:55:18;19.50;95.10
1468;DHT22;727;48.892;9.544;2023-08-07T14:57:45;19.30;95.70
1468;DHT22;727;48.892;9.544;2023-08-07T15:00:15;19.00;94.30
1468;DHT22;727;48.892;9.544;2023-08-07T15:02:43;18.70;93.30
1468;DHT22;727;48.892;9.544;2023-08-07T15:05:09;18.60;93.90
1468;DHT22;727;48.892;9.544;2023-08-07T15:07:36;18.50;93.60
1468;DHT22;727;48.892;9.544;2023-08-07T15:10:03;18.50;92.80
1468;DHT22;727;48.892;9.544;2023-08-07T15:12:30;18.60;93.10
1468;DHT22;727;48.892;9.544;2023-08-07T15:14:57;18.70;91.50
1468;DHT22;727;48.892;9.544;2023-08-07T15:17:26;18.70;91.40
1468;DHT22;727;48.892;9.544;2023-08-07T15:19:53;18.70;91.80
1468;DHT22;727;48.892;9.544;2023-08-07T15:22:20;18.80;91.90
1468;DHT22;727;48.892;9.544;2023-08-07T15:24:46;18.90;90.50
1468;DHT22;727;48.892;9.544;2023-08-07T15:27:13;19.00;90.70
1468;DHT22;727;48.892;9.544;2023-08-07T15:29:40;19.00;90.90
1468;DHT22;727;48.892;9.544;2023-08-07T15:32:12;18.80;93.10
1468;DHT22;727;48.892;9.544;2023-08-07T15:34:40;18.60;94.20
1468;DHT22;727;48.892;9.544;2023-08-07T15:37:08;18.40;94.50
1468;DHT22;727;48.892;9.544;2023-08-07T15:39:34;18.20;95.20
1468;DHT22;727;48.892;9.544;2023-08-07T15:42:01;18.00;95.20
1468;DHT22;727;48.892;9.544;2023-08-07T15:44:28;17.90;94.70
1468;DHT22;727;48.892;9.544;2023-08-07T15:46:55;17.80;94.80
1468;DHT22;727;48.892;9.544;2023-08-07T15:49:22;17.80;95.70
1468;DHT22;727;48.892;9.544;2023-08-07T15:51:51;17.70;95.20
1468;DHT22;727;48.892;9.544;2023-08-07T15:54:18;17.80;94.80
1468;DHT22;727;48.892;9.544;2023-08-07T15:56:45;18.00;94.80
1468;DHT22;727;48.892;9.544;2023-08-07T15:59:11;18.20;94.00
1468;DHT22;727;48.892;9.544;2023-08-07T16:01:38;18.60;94.50
1468;DHT22;727;48.892;9.544;2023-08-07T16:04:05;18.80;93.90
1468;DHT22;727;48.892;9.544;2023-08-07T16:06:32;19.00;93.60
1468;DHT22;727;48.892;9.544;2023-08-07T16:09:00;19.00;93.10
1468;DHT22;727;48.892;9.544;2023-08-07T16:11:27;19.00;93.00
1468;DHT22;727;48.892;9.544;2023-08-07T16:13:54;19.00;92.60
1468;DHT22;727;48.892;9.544;2023-08-07T16:16:21;18.70;92.80
1468;DHT22;727;48.892;9.544;2023-08-07T16:18:47;18.50;93.10